createdAt,value
2023-05-12T00:01:40.581Z,10.45
2023-05-12T00:04:13.086Z,7.40
2023-05-12T00:06:45.855Z,7.90
2023-05-12T00:09:18.325Z,13.68
2023-05-12T00:11:51.128Z,11.18
2023-05-12T00:14:23.575Z,9.30
2023-05-12T00:16:56.637Z,7.78
2023-05-12T00:19:29.137Z,6.93
2023-05-12T00:22:02.712Z,9.13
2023-05-12T00:24:35.171Z,9.23
2023-05-12T00:27:07.989Z,11.23
2023-05-12T00:29:40.545Z,8.43
2023-05-12T00:32:13.386Z,6.22
2023-05-12T00:34:46.065Z,9.15
2023-05-12T00:37:18.832Z,6.55
2023-05-12T00:39:51.339Z,10.43
2023-05-12T00:42:24.325Z,7.50
2023-05-12T00:44:56.786Z,9.52
2023-05-12T00:47:30.418Z,10.07
2023-05-12T00:50:06.899Z,5.72
2023-05-12T00:52:39.790Z,6.45
2023-05-12T00:55:12.277Z,6.57
2023-05-12T00:57:45.743Z,6.57
2023-05-12T01:00:18.840Z,21.30
2023-05-12T01:02:51.972Z,10.48
2023-05-12T01:05:30.853Z,6.40
2023-05-12T01:08:04.334Z,8.23
2023-05-12T01:10:37.015Z,7.95
2023-05-12T01:13:09.774Z,9.68
2023-05-12T01:15:49.028Z,5.57
2023-05-12T01:18:23.440Z,9.32
2023-05-12T01:20:56.726Z,15.45
2023-05-12T01:23:36.130Z,6.35
2023-05-12T01:26:10.006Z,9.00
2023-05-12T01:28:43.100Z,8.55
2023-05-12T01:31:17.463Z,6.03
2023-05-12T01:33:51.073Z,7.90
2023-05-12T01:36:23.556Z,6.82
2023-05-12T01:38:56.336Z,6.13
2023-05-12T01:41:28.785Z,5.05
2023-05-12T01:44:01.810Z,7.63
2023-05-12T01:46:34.375Z,7.57
2023-05-12T01:49:07.224Z,11.65
2023-05-12T01:51:39.902Z,5.70
2023-05-12T01:54:12.737Z,5.43
2023-05-12T01:56:45.438Z,8.07
2023-05-12T01:59:18.594Z,8.18
2023-05-12T02:01:51.128Z,8.80
2023-05-12T02:04:23.947Z,7.00
2023-05-12T02:06:56.464Z,5.47
2023-05-12T02:09:29.260Z,6.90
2023-05-12T02:12:02.446Z,7.88
2023-05-12T02:14:35.453Z,8.95
2023-05-12T02:17:07.948Z,9.52
2023-05-12T02:19:41.352Z,7.10
2023-05-12T02:22:13.864Z,6.28
2023-05-12T02:24:46.887Z,6.40
2023-05-12T02:27:19.437Z,15.05
2023-05-12T02:29:52.285Z,7.20
2023-05-12T02:32:28.184Z,4.80
2023-05-12T02:35:01.198Z,5.88
2023-05-12T02:37:33.771Z,7.55
2023-05-12T02:40:07.853Z,5.32
2023-05-12T02:42:40.390Z,7.05
2023-05-12T02:45:13.253Z,5.30
2023-05-12T02:47:45.748Z,6.10
2023-05-12T02:50:18.860Z,4.30
2023-05-12T02:52:51.828Z,7.07
2023-05-12T02:55:24.931Z,5.00
2023-05-12T02:57:57.531Z,6.05
2023-05-12T03:00:30.340Z,6.78
2023-05-12T03:03:02.838Z,8.50
2023-05-12T03:05:35.622Z,7.03
2023-05-12T03:08:08.109Z,5.97
2023-05-12T03:10:40.902Z,11.00
2023-05-12T03:13:13.437Z,10.25
2023-05-12T03:15:46.502Z,7.55
2023-05-12T03:18:18.967Z,9.15
2023-05-12T03:20:51.880Z,7.22
2023-05-12T03:23:24.651Z,9.90
2023-05-12T03:25:57.416Z,9.82
2023-05-12T03:28:30.028Z,7.57
2023-05-12T03:31:02.836Z,6.40
2023-05-12T03:33:35.406Z,8.32
2023-05-12T03:36:08.419Z,6.28
2023-05-12T03:38:40.954Z,5.13
2023-05-12T03:41:13.702Z,6.07
2023-05-12T03:43:46.628Z,6.13
2023-05-12T03:46:19.436Z,7.13
2023-05-12T03:48:52.336Z,6.82
2023-05-12T03:51:26.085Z,5.18
2023-05-12T03:53:58.794Z,8.27
2023-05-12T03:56:31.748Z,9.35
2023-05-12T03:59:04.223Z,8.95
2023-05-12T04:01:36.966Z,6.70
2023-05-12T04:04:09.492Z,4.60
2023-05-12T04:06:42.297Z,5.05
2023-05-12T04:09:16.672Z,6.38
2023-05-12T04:11:49.475Z,9.48
2023-05-12T04:14:31.843Z,4.93
2023-05-12T04:17:12.243Z,9.63
2023-05-12T04:19:44.689Z,6.53
2023-05-12T04:22:17.509Z,8.20
2023-05-12T04:24:50.338Z,7.40
2023-05-12T04:27:23.090Z,7.78
2023-05-12T04:29:55.578Z,6.55
2023-05-12T04:32:28.466Z,10.23
2023-05-12T04:35:01.188Z,8.85
2023-05-12T04:37:34.504Z,5.43
2023-05-12T04:40:08.963Z,4.53
2023-05-12T04:42:41.760Z,11.07
2023-05-12T04:45:14.270Z,5.57
2023-05-12T04:47:47.153Z,4.65
2023-05-12T04:50:19.761Z,11.70
2023-05-12T04:52:52.567Z,8.32
2023-05-12T04:55:25.160Z,8.82
2023-05-12T04:57:57.894Z,6.28
2023-05-12T05:00:30.457Z,6.32
2023-05-12T05:03:04.138Z,8.40
2023-05-12T05:06:01.336Z,8.25
2023-05-12T05:08:40.495Z,6.90
2023-05-12T05:11:12.963Z,7.07
2023-05-12T05:13:45.816Z,7.32
2023-05-12T05:16:18.840Z,6.22
2023-05-12T05:18:51.811Z,4.50
2023-05-12T05:21:24.297Z,4.30
2023-05-12T05:23:57.033Z,6.97
2023-05-12T05:26:29.517Z,7.70
2023-05-12T05:29:02.614Z,4.57
2023-05-12T05:31:35.245Z,10.15
2023-05-12T05:34:08.064Z,8.77
2023-05-12T05:36:40.637Z,6.55
2023-05-12T05:39:13.521Z,6.78
2023-05-12T05:41:45.976Z,10.57
2023-05-12T05:44:18.785Z,8.15
2023-05-12T05:46:51.522Z,8.65
2023-05-12T05:49:24.334Z,3.60
2023-05-12T05:51:56.836Z,9.85
2023-05-12T05:54:29.573Z,22.20
2023-05-12T05:57:03.146Z,6.55
2023-05-12T05:59:35.897Z,5.30
2023-05-12T06:02:08.593Z,6.97
2023-05-12T06:04:41.389Z,4.88
2023-05-12T06:07:13.994Z,5.28
2023-05-12T06:09:46.735Z,10.73
2023-05-12T06:12:19.282Z,9.82
2023-05-12T06:14:52.014Z,8.15
2023-05-12T06:17:24.590Z,6.57
2023-05-12T06:19:57.323Z,10.57
2023-05-12T06:22:29.800Z,6.40
2023-05-12T06:25:02.797Z,6.55
2023-05-12T06:27:35.402Z,9.95
2023-05-12T06:30:09.570Z,9.50
2023-05-12T06:32:42.190Z,7.15
2023-05-12T06:35:15.045Z,5.15
2023-05-12T06:37:50.883Z,2.78
2023-05-12T06:40:23.744Z,4.80
2023-05-12T06:42:56.379Z,7.18
2023-05-12T06:45:29.126Z,5.47
2023-05-12T06:48:03.364Z,2.33
2023-05-12T06:50:36.601Z,14.13
2023-05-12T06:53:09.274Z,15.93
2023-05-12T06:55:43.944Z,4.68
2023-05-12T06:58:16.573Z,5.88
2023-05-12T07:00:49.306Z,5.60
2023-05-12T07:03:22.014Z,10.98
2023-05-12T07:05:54.861Z,5.45
2023-05-12T07:08:27.358Z,6.75
2023-05-12T07:11:01.105Z,2.70
2023-05-12T07:13:33.622Z,9.98
2023-05-12T07:16:06.807Z,4.25
2023-05-12T07:18:39.342Z,3.22
2023-05-12T07:21:13.146Z,3.42
2023-05-12T07:23:45.867Z,4.40
2023-05-12T07:26:18.754Z,3.28
2023-05-12T07:28:51.306Z,4.15
2023-05-12T07:31:24.169Z,4.13
2023-05-12T07:33:56.942Z,14.75
2023-05-12T07:36:29.783Z,8.57
2023-05-12T07:39:02.232Z,6.88
2023-05-12T07:41:35.047Z,4.90
2023-05-12T07:44:07.577Z,8.23
2023-05-12T07:46:40.411Z,4.75
2023-05-12T07:49:12.952Z,6.28
2023-05-12T07:51:45.739Z,4.43
2023-05-12T07:54:18.258Z,4.65
2023-05-12T07:56:51.643Z,7.32
2023-05-12T07:59:24.121Z,5.18
2023-05-12T08:01:56.953Z,8.48
2023-05-12T08:04:29.674Z,2.80
2023-05-12T08:07:02.444Z,6.10
2023-05-12T08:09:35.028Z,3.47
2023-05-12T08:12:07.981Z,5.80
2023-05-12T08:14:40.576Z,3.58
2023-05-12T08:17:13.713Z,11.60
2023-05-12T08:19:46.277Z,7.55
2023-05-12T08:22:19.107Z,9.55
2023-05-12T08:24:52.816Z,9.65
2023-05-12T08:27:25.759Z,2.17
2023-05-12T08:29:58.710Z,2.38
2023-05-12T08:32:32.057Z,11.32
2023-05-12T08:35:05.016Z,2.97
2023-05-12T08:37:37.840Z,3.85
2023-05-12T08:40:21.061Z,4.47
2023-05-12T08:43:01.757Z,1.70
2023-05-12T08:45:38.224Z,2.60
2023-05-12T08:48:13.605Z,2.00
2023-05-12T08:50:48.603Z,6.85
2023-05-12T08:53:24.858Z,7.43
2023-05-12T08:58:54.630Z,2.88
2023-05-12T09:01:27.433Z,3.38
2023-05-12T09:04:00.370Z,6.63
2023-05-12T09:06:33.797Z,3.05
2023-05-12T09:09:07.902Z,2.30
2023-05-12T09:11:42.046Z,3.30
2023-05-12T09:14:25.560Z,9.05
2023-05-12T09:17:03.614Z,4.13
2023-05-12T09:19:36.414Z,6.43
2023-05-12T09:22:14.770Z,2.00
2023-05-12T09:24:47.577Z,1.88
2023-05-12T09:27:30.116Z,2.55
2023-05-12T09:30:02.921Z,4.10
2023-05-12T09:32:39.362Z,1.73
2023-05-12T09:35:12.655Z,4.43
2023-05-12T09:37:47.272Z,3.10
2023-05-12T09:40:20.071Z,2.00
2023-05-12T09:42:52.954Z,4.65
2023-05-12T09:45:25.857Z,2.47
2023-05-12T09:48:11.067Z,2.58
2023-05-12T09:50:50.476Z,1.90
2023-05-12T09:53:23.108Z,6.00
2023-05-12T09:55:55.900Z,3.75
2023-05-12T09:58:29.206Z,2.53
2023-05-12T10:03:40.714Z,4.20
2023-05-12T10:06:16.301Z,9.55
2023-05-12T10:09:15.902Z,3.85
2023-05-12T10:11:53.527Z,2.85
2023-05-12T10:14:27.068Z,1.40
2023-05-12T10:17:00.468Z,1.73
2023-05-12T10:19:33.239Z,2.03
2023-05-12T10:22:09.889Z,3.78
2023-05-12T10:24:42.766Z,3.25
2023-05-12T10:27:17.285Z,6.50
2023-05-12T10:29:53.733Z,1.90
2023-05-12T10:32:27.192Z,9.90
2023-05-12T10:35:10.459Z,2.03
2023-05-12T10:37:44.573Z,3.38
2023-05-12T10:40:25.575Z,2.00
2023-05-12T10:43:02.100Z,7.00
2023-05-12T10:45:37.564Z,17.25
2023-05-12T10:48:15.550Z,3.83
2023-05-12T10:50:54.689Z,5.28
2023-05-12T10:53:38.045Z,6.50
2023-05-12T10:56:26.721Z,2.88
2023-05-12T10:59:11.949Z,9.52
2023-05-12T11:02:02.863Z,4.60
2023-05-12T11:04:48.862Z,3.70
2023-05-12T11:07:24.595Z,2.90
2023-05-12T11:10:01.466Z,2.65
2023-05-12T11:12:38.100Z,4.65
2023-05-12T11:15:12.266Z,5.15
2023-05-12T11:17:46.007Z,4.50
2023-05-12T11:20:26.695Z,2.22
2023-05-12T11:23:00.150Z,5.32
2023-05-12T11:25:33.128Z,3.53
2023-05-12T11:28:11.731Z,5.20
2023-05-12T11:30:55.423Z,3.95
2023-05-12T11:33:28.365Z,3.80
2023-05-12T11:36:05.500Z,1.90
2023-05-12T11:38:38.272Z,5.88
2023-05-12T11:41:11.097Z,5.43
2023-05-12T11:43:43.713Z,2.72
2023-05-12T11:46:29.929Z,3.53
2023-05-12T11:49:09.930Z,3.22
2023-05-12T11:51:45.889Z,3.58
2023-05-12T11:54:18.621Z,2.60
2023-05-12T11:56:53.832Z,1.88
2023-05-12T11:59:34.454Z,3.38
2023-05-12T12:02:07.762Z,5.05
2023-05-12T12:04:41.862Z,6.10
2023-05-12T12:07:14.777Z,5.88
2023-05-12T12:09:47.248Z,6.95
2023-05-12T12:12:20.007Z,7.68
2023-05-12T12:14:52.508Z,7.07
2023-05-12T12:17:30.844Z,7.30
2023-05-12T12:20:04.261Z,12.90
2023-05-12T12:22:37.094Z,3.03
2023-05-12T12:25:09.866Z,5.35
2023-05-12T12:27:42.827Z,2.08
2023-05-12T12:30:17.028Z,2.97
2023-05-12T12:32:50.217Z,8.93
2023-05-12T12:35:24.469Z,4.72
2023-05-12T12:38:00.570Z,10.00
2023-05-12T12:40:33.089Z,12.13
2023-05-12T12:43:06.341Z,5.22
2023-05-12T12:45:38.780Z,1.83
2023-05-12T12:48:11.982Z,3.83
2023-05-12T12:50:44.667Z,5.82
2023-05-12T12:53:18.060Z,3.17
2023-05-12T12:55:53.413Z,2.78
2023-05-12T12:58:26.292Z,5.68
2023-05-12T13:00:59.274Z,4.05
2023-05-12T13:03:32.137Z,4.28
2023-05-12T13:06:13.888Z,5.03
2023-05-12T13:08:47.771Z,5.45
2023-05-12T13:11:20.331Z,2.45
2023-05-12T13:13:53.213Z,2.10
2023-05-12T13:16:25.777Z,4.18
2023-05-12T13:19:04.064Z,5.90
2023-05-12T13:21:37.919Z,2.10
2023-05-12T13:24:10.854Z,4.38
2023-05-12T13:26:46.454Z,1.48
2023-05-12T13:29:19.556Z,4.38
2023-05-12T13:31:52.234Z,2.65
2023-05-12T13:34:25.212Z,2.13
2023-05-12T13:36:57.742Z,4.57
2023-05-12T13:39:33.152Z,1.88
2023-05-12T13:42:06.151Z,6.57
2023-05-12T13:44:38.993Z,1.85
2023-05-12T13:47:11.646Z,1.48
2023-05-12T13:49:44.685Z,4.35
2023-05-12T13:52:17.198Z,2.10
2023-05-12T13:54:50.196Z,3.65
2023-05-12T13:57:22.780Z,3.65
2023-05-12T13:59:57.931Z,6.80
2023-05-12T14:02:30.570Z,2.67
2023-05-12T14:05:04.106Z,2.85
2023-05-12T14:07:36.790Z,2.13
2023-05-12T14:10:10.523Z,5.18
2023-05-12T14:12:45.268Z,2.08
2023-05-12T14:17:54.505Z,6.35
2023-05-12T14:20:27.404Z,7.78
2023-05-12T14:23:00.053Z,2.22
2023-05-12T14:25:32.907Z,5.22
2023-05-12T14:28:05.533Z,2.97
2023-05-12T14:30:42.085Z,4.00
2023-05-12T14:33:17.746Z,4.38
2023-05-12T14:36:03.119Z,3.85
2023-05-12T14:38:36.359Z,4.50
2023-05-12T14:41:09.742Z,2.10
2023-05-12T14:43:42.300Z,2.25
2023-05-12T14:46:15.330Z,1.45
2023-05-12T14:48:48.912Z,2.78
2023-05-12T14:51:21.714Z,3.65
2023-05-12T14:53:54.487Z,3.15
2023-05-12T14:56:27.419Z,4.85
2023-05-12T14:59:00.504Z,1.77
2023-05-12T15:01:36.051Z,2.95
2023-05-12T15:04:08.681Z,2.00
2023-05-12T15:06:45.418Z,2.33
2023-05-12T15:09:20.289Z,1.27
2023-05-12T15:11:53.252Z,1.95
2023-05-12T15:14:30.795Z,8.60
2023-05-12T15:17:06.126Z,5.40
2023-05-12T15:19:38.806Z,3.30
2023-05-12T15:22:22.969Z,3.28
2023-05-12T15:25:13.700Z,4.95
2023-05-12T15:27:46.610Z,1.90
2023-05-12T15:30:27.617Z,1.75
2023-05-12T15:33:04.472Z,4.05
2023-05-12T15:35:37.323Z,1.48
2023-05-12T15:38:10.554Z,3.58
2023-05-12T15:44:43.764Z,1.90
2023-05-12T15:47:16.752Z,4.30
2023-05-12T15:49:49.776Z,5.00
2023-05-12T15:52:23.024Z,2.50
2023-05-12T15:54:55.481Z,2.25
2023-05-12T15:57:28.236Z,1.20
2023-05-12T16:00:00.850Z,2.35
2023-05-12T16:02:33.842Z,1.30
2023-05-12T16:05:07.304Z,3.20
2023-05-12T16:07:40.299Z,1.98
2023-05-12T16:10:12.797Z,1.40
2023-05-12T16:12:46.208Z,6.13
2023-05-12T16:15:19.728Z,6.07
2023-05-12T16:17:52.905Z,1.40
2023-05-12T16:20:25.467Z,1.65
2023-05-12T16:22:58.443Z,5.65
2023-05-12T16:25:31.053Z,4.78
2023-05-12T16:28:04.539Z,1.60
2023-05-12T16:30:37.828Z,1.23
2023-05-12T16:33:10.730Z,2.90
2023-05-12T16:35:43.285Z,5.10
2023-05-12T16:38:16.050Z,2.20
2023-05-12T16:40:49.265Z,4.30
2023-05-12T16:43:22.008Z,4.30
2023-05-12T16:46:02.391Z,1.17
2023-05-12T16:48:35.589Z,2.80
2023-05-12T16:51:12.707Z,1.55
2023-05-12T16:53:45.616Z,2.60
2023-05-12T16:56:18.164Z,5.88
2023-05-12T16:58:53.456Z,3.38
2023-05-12T17:01:26.006Z,1.27
2023-05-12T17:07:24.463Z,4.18
2023-05-12T17:09:57.436Z,3.75
2023-05-12T17:12:30.925Z,2.05
2023-05-12T17:15:22.092Z,2.65
2023-05-12T17:17:54.633Z,3.97
2023-05-12T17:20:28.961Z,6.13
2023-05-12T17:23:01.502Z,1.17
2023-05-12T17:25:34.240Z,3.50
2023-05-12T17:28:06.721Z,7.93
2023-05-12T17:30:39.778Z,3.72
2023-05-12T17:33:15.519Z,3.50
2023-05-12T17:36:03.830Z,3.90
2023-05-12T17:38:41.945Z,1.48
2023-05-12T17:41:16.199Z,6.65
2023-05-12T17:43:48.711Z,3.95
2023-05-12T17:46:21.594Z,2.58
2023-05-12T17:48:54.159Z,1.67
2023-05-12T17:51:28.249Z,3.53
2023-05-12T17:54:00.735Z,3.17
2023-05-12T17:56:34.852Z,2.65
2023-05-12T17:59:07.335Z,3.08
2023-05-12T18:01:43.131Z,3.03
2023-05-12T18:04:15.779Z,6.70
2023-05-12T18:06:50.255Z,3.05
2023-05-12T18:09:25.802Z,3.75
2023-05-12T18:11:58.924Z,5.63
2023-05-12T18:14:31.505Z,4.50
2023-05-12T18:17:04.426Z,2.80
2023-05-12T18:19:36.967Z,5.32
2023-05-12T18:22:09.770Z,3.00
2023-05-12T18:24:42.260Z,5.82
2023-05-12T18:27:15.033Z,3.72
2023-05-12T18:29:47.532Z,2.30
2023-05-12T18:32:20.327Z,2.42
2023-05-12T18:34:52.870Z,2.42
2023-05-12T18:37:25.990Z,5.65
2023-05-12T18:39:58.657Z,3.92
2023-05-12T18:42:31.562Z,4.68
2023-05-12T18:45:04.430Z,4.07
2023-05-12T18:47:37.667Z,3.45
2023-05-12T18:50:12.062Z,3.42
2023-05-12T18:52:47.441Z,2.72
2023-05-12T18:55:20.332Z,3.63
2023-05-12T18:57:53.302Z,7.15
2023-05-12T19:00:31.875Z,9.55
2023-05-12T19:03:05.111Z,5.45
2023-05-12T19:05:38.938Z,3.45
2023-05-12T19:08:15.057Z,7.28
2023-05-12T19:10:48.475Z,9.15
2023-05-12T19:13:29.239Z,5.30
2023-05-12T19:16:01.734Z,8.25
2023-05-12T19:18:34.826Z,15.27
2023-05-12T19:21:07.379Z,9.65
2023-05-12T19:23:40.219Z,13.60
2023-05-12T19:26:12.769Z,17.75
2023-05-12T19:28:45.753Z,18.20
2023-05-12T19:31:18.278Z,12.00
2023-05-12T19:33:54.472Z,12.70
2023-05-12T19:36:28.898Z,14.45
2023-05-12T19:39:05.013Z,11.52
2023-05-12T19:41:37.601Z,15.20
2023-05-12T19:44:10.359Z,14.30
2023-05-12T19:46:48.872Z,17.52
2023-05-12T19:49:21.588Z,17.30
2023-05-12T19:51:54.090Z,16.25
2023-05-12T19:54:26.937Z,18.00
2023-05-12T19:56:59.446Z,15.48
2023-05-12T19:59:32.267Z,13.05
2023-05-12T20:02:05.906Z,16.27
2023-05-12T20:04:38.713Z,14.68
2023-05-12T20:07:11.226Z,13.82
2023-05-12T20:09:45.674Z,20.80
2023-05-12T20:12:18.531Z,15.50
2023-05-12T20:14:51.350Z,19.88
2023-05-12T20:17:23.952Z,14.65
2023-05-12T20:20:01.332Z,12.90
2023-05-12T20:22:34.072Z,16.05
2023-05-12T20:25:07.165Z,29.65
2023-05-12T20:27:39.724Z,16.92
2023-05-12T20:30:13.278Z,14.30
2023-05-12T20:32:46.147Z,16.60
2023-05-12T20:35:19.350Z,22.63
2023-05-12T20:37:52.058Z,11.38
2023-05-12T20:40:24.864Z,22.83
2023-05-12T20:42:57.314Z,14.60
2023-05-12T20:45:30.330Z,8.90
2023-05-12T20:48:03.085Z,9.63
2023-05-12T20:50:36.039Z,8.60
2023-05-12T20:53:08.731Z,14.13
2023-05-12T20:55:44.629Z,7.95
2023-05-12T20:58:17.196Z,10.40
2023-05-12T21:00:49.954Z,8.98
2023-05-12T21:03:23.976Z,8.02
2023-05-12T21:05:56.711Z,17.45
2023-05-12T21:08:29.310Z,15.50
2023-05-12T21:11:02.135Z,13.35
2023-05-12T21:13:34.632Z,8.80
2023-05-12T21:16:07.518Z,7.45
2023-05-12T21:18:40.123Z,8.77
2023-05-12T21:21:13.254Z,7.68
2023-05-12T21:23:46.417Z,13.07
2023-05-12T21:26:19.182Z,10.55
2023-05-12T21:28:51.722Z,8.55
2023-05-12T21:31:24.565Z,16.92
2023-05-12T21:33:57.101Z,7.40
2023-05-12T21:36:30.042Z,8.70
2023-05-12T21:39:03.242Z,9.77
2023-05-12T21:41:38.398Z,9.98
2023-05-12T21:44:11.435Z,8.88
2023-05-12T21:46:44.377Z,12.80
2023-05-12T21:49:17.065Z,8.68
2023-05-12T21:51:49.941Z,6.90
2023-05-12T21:54:22.537Z,7.28
2023-05-12T21:56:55.452Z,9.48
2023-05-12T21:59:29.189Z,7.60
2023-05-12T22:02:02.201Z,11.13
2023-05-12T22:04:34.693Z,8.85
2023-05-12T22:07:07.905Z,7.53
2023-05-12T22:09:40.343Z,12.10
2023-05-12T22:12:18.601Z,9.52
2023-05-12T22:14:51.065Z,10.75
2023-05-12T22:17:23.918Z,11.27
2023-05-12T22:19:56.559Z,7.45
2023-05-12T22:22:29.348Z,7.15
2023-05-12T22:25:01.862Z,5.78
2023-05-12T22:27:43.806Z,7.72
2023-05-12T22:30:18.093Z,9.23
2023-05-12T22:32:52.062Z,15.52
2023-05-12T22:35:24.562Z,9.30
2023-05-12T22:37:57.348Z,22.17
2023-05-12T22:40:30.739Z,10.27
2023-05-12T22:43:03.585Z,11.65
2023-05-12T22:45:36.453Z,7.50
2023-05-12T22:48:09.852Z,10.02
2023-05-12T22:50:42.368Z,6.55
2023-05-12T22:53:15.401Z,9.43
2023-05-12T22:55:48.070Z,14.85
2023-05-12T22:58:20.994Z,10.32
2023-05-12T23:00:53.672Z,14.10
2023-05-12T23:03:26.559Z,10.40
2023-05-12T23:05:59.164Z,14.85
2023-05-12T23:08:31.899Z,11.05
2023-05-12T23:11:04.389Z,7.53
2023-05-12T23:13:37.175Z,10.65
2023-05-12T23:16:09.730Z,11.77
2023-05-12T23:18:42.645Z,19.75
2023-05-12T23:21:15.514Z,9.77
2023-05-12T23:23:48.291Z,12.82
2023-05-12T23:26:20.891Z,9.57
2023-05-12T23:28:53.707Z,11.40
2023-05-12T23:31:26.638Z,12.40
2023-05-12T23:33:59.392Z,10.35
2023-05-12T23:36:31.903Z,8.93
2023-05-12T23:39:04.685Z,15.23
2023-05-12T23:41:37.179Z,9.15
2023-05-12T23:44:10.391Z,14.38
2023-05-12T23:46:42.983Z,10.73
2023-05-12T23:49:16.075Z,11.35
2023-05-12T23:51:48.584Z,7.85
2023-05-12T23:54:21.698Z,9.23
2023-05-12T23:56:54.214Z,11.52
2023-05-12T23:59:27.043Z,15.65
